createdAt,value
2019-02-26T00:00:47.023Z,10.80
2019-02-26T00:03:14.043Z,10.20
2019-02-26T00:05:42.478Z,12.33
2019-02-26T00:08:10.891Z,8.70
2019-02-26T00:10:39.323Z,8.77
2019-02-26T00:13:07.723Z,9.43
2019-02-26T00:15:38.040Z,8.57
2019-02-26T00:18:09.433Z,8.60
2019-02-26T00:20:37.415Z,10.77
2019-02-26T00:23:06.558Z,12.63
2019-02-26T00:25:35.157Z,9.27
2019-02-26T00:28:03.567Z,7.43
2019-02-26T00:30:33.412Z,9.33
2019-02-26T00:33:02.771Z,9.53
2019-02-26T00:35:32.262Z,8.60
2019-02-26T00:38:00.677Z,9.40
2019-02-26T00:40:29.106Z,10.83
2019-02-26T00:42:59.559Z,9.87
2019-02-26T00:45:29.483Z,10.10
2019-02-26T00:47:57.788Z,9.47
2019-02-26T00:50:27.977Z,13.03
2019-02-26T00:52:57.044Z,10.63
2019-02-26T00:55:29.388Z,9.53
2019-02-26T00:58:16.119Z,10.67
2019-02-26T01:00:44.542Z,10.20
2019-02-26T01:03:13.605Z,12.63
2019-02-26T01:05:43.648Z,9.00
2019-02-26T01:08:15.189Z,10.20
2019-02-26T01:10:43.682Z,11.23
2019-02-26T01:13:13.510Z,11.60
2019-02-26T01:15:41.924Z,12.63
2019-02-26T01:18:10.345Z,8.60
2019-02-26T01:20:38.760Z,9.20
2019-02-26T01:23:07.186Z,8.73
2019-02-26T01:25:38.230Z,10.33
2019-02-26T01:28:06.334Z,10.60
2019-02-26T01:30:36.252Z,9.80
2019-02-26T01:33:07.410Z,10.20
2019-02-26T01:35:37.745Z,11.07
2019-02-26T01:38:06.002Z,9.07
2019-02-26T01:40:34.424Z,10.20
2019-02-26T01:43:03.885Z,9.53
2019-02-26T01:45:32.984Z,8.13
2019-02-26T01:48:01.403Z,11.00
2019-02-26T01:50:30.870Z,9.33
2019-02-26T01:53:01.082Z,7.43
2019-02-26T01:55:29.624Z,9.10
2019-02-26T01:57:58.810Z,11.00
2019-02-26T02:00:28.023Z,8.83
2019-02-26T02:02:56.439Z,9.73
2019-02-26T02:05:26.672Z,11.17
2019-02-26T02:07:55.991Z,7.53
2019-02-26T02:10:24.769Z,7.67
2019-02-26T02:12:55.290Z,9.17
2019-02-26T02:15:23.901Z,10.27
2019-02-26T02:17:52.622Z,9.33
2019-02-26T02:20:21.613Z,8.30
2019-02-26T02:22:50.238Z,8.57
2019-02-26T02:25:18.715Z,6.67
2019-02-26T02:27:49.732Z,8.00
2019-02-26T02:30:23.214Z,8.57
2019-02-26T02:32:53.736Z,11.80
2019-02-26T02:35:19.353Z,7.43
2019-02-26T02:37:48.205Z,8.17
2019-02-26T02:40:16.731Z,5.93
2019-02-26T02:42:46.501Z,7.07
2019-02-26T02:45:20.123Z,6.60
2019-02-26T02:47:45.452Z,6.30
2019-02-26T02:50:15.337Z,9.37
2019-02-26T02:52:44.823Z,8.57
2019-02-26T02:55:16.491Z,7.50
2019-02-26T02:57:43.424Z,7.23
2019-02-26T03:00:16.227Z,7.90
2019-02-26T03:02:46.443Z,10.67
2019-02-26T03:05:15.111Z,7.40
2019-02-26T03:07:45.873Z,9.13
2019-02-26T03:10:14.935Z,8.30
2019-02-26T03:12:46.909Z,6.60
2019-02-26T03:15:15.651Z,6.53
2019-02-26T03:17:44.334Z,5.47
2019-02-26T03:20:14.001Z,8.13
2019-02-26T03:22:46.151Z,10.87
2019-02-26T03:25:17.343Z,9.57
2019-02-26T03:27:44.869Z,6.57
2019-02-26T03:30:26.092Z,6.80
2019-02-26T03:32:52.173Z,6.67
2019-02-26T03:35:22.234Z,6.87
2019-02-26T03:37:51.502Z,8.23
2019-02-26T03:40:20.807Z,7.20
2019-02-26T03:42:49.870Z,7.33
2019-02-26T03:45:23.877Z,7.23
2019-02-26T03:47:48.554Z,7.40
2019-02-26T03:50:17.636Z,8.10
2019-02-26T03:52:46.118Z,9.13
2019-02-26T03:55:18.319Z,7.20
2019-02-26T03:57:47.340Z,7.13
2019-02-26T04:00:19.961Z,6.97
2019-02-26T04:02:49.094Z,7.27
2019-02-26T04:05:17.898Z,9.37
2019-02-26T04:07:49.290Z,8.23
2019-02-26T04:10:16.470Z,10.63
2019-02-26T04:12:47.866Z,7.40
2019-02-26T04:15:16.993Z,8.47
2019-02-26T04:17:45.674Z,9.67
2019-02-26T04:20:15.625Z,6.83
2019-02-26T04:22:47.054Z,6.20
2019-02-26T04:25:27.009Z,7.03
2019-02-26T04:28:17.952Z,7.27
2019-02-26T04:30:58.536Z,8.57
2019-02-26T04:33:46.587Z,5.37
2019-02-26T04:36:26.836Z,5.53
2019-02-26T04:39:01.139Z,6.43
2019-02-26T04:41:33.248Z,6.40
2019-02-26T04:44:10.770Z,9.40
2019-02-26T04:46:42.351Z,5.83
2019-02-26T04:49:10.769Z,6.03
2019-02-26T04:51:41.933Z,7.90
2019-02-26T04:54:09.321Z,6.73
2019-02-26T04:56:40.188Z,6.73
2019-02-26T04:59:09.778Z,8.70
2019-02-26T05:01:38.028Z,9.07
2019-02-26T05:04:06.713Z,7.77
2019-02-26T05:06:35.147Z,6.57
2019-02-26T05:09:05.571Z,8.53
2019-02-26T05:11:38.476Z,9.97
2019-02-26T05:14:06.704Z,12.47
2019-02-26T05:16:37.816Z,6.17
2019-02-26T05:19:05.720Z,9.83
2019-02-26T05:21:35.521Z,9.67
2019-02-26T05:24:04.279Z,8.57
2019-02-26T05:26:32.713Z,6.93
2019-02-26T05:29:01.116Z,6.53
2019-02-26T05:31:32.035Z,6.30
2019-02-26T05:34:00.101Z,8.17
2019-02-26T05:36:31.075Z,6.43
2019-02-26T05:39:00.335Z,6.00
2019-02-26T05:41:28.897Z,5.70
2019-02-26T05:43:58.257Z,5.90
2019-02-26T05:46:29.528Z,6.77
2019-02-26T05:48:57.927Z,5.17
2019-02-26T05:51:27.449Z,6.63
2019-02-26T05:53:56.502Z,11.80
2019-02-26T05:56:24.954Z,11.17
2019-02-26T05:58:53.710Z,8.20
2019-02-26T06:01:24.899Z,6.23
2019-02-26T06:03:52.525Z,6.97
2019-02-26T06:06:20.946Z,9.30
2019-02-26T06:08:49.355Z,8.67
2019-02-26T06:11:17.780Z,7.00
2019-02-26T06:13:46.186Z,6.23
2019-02-26T06:16:14.605Z,7.83
2019-02-26T06:18:48.878Z,5.83
2019-02-26T06:21:18.987Z,8.67
2019-02-26T06:23:50.000Z,8.20
2019-02-26T06:26:18.437Z,6.27
2019-02-26T06:28:52.870Z,8.07
2019-02-26T06:31:24.673Z,6.00
2019-02-26T06:33:52.504Z,19.13
2019-02-26T06:36:23.340Z,24.20
2019-02-26T06:38:53.721Z,16.90
2019-02-26T06:41:21.536Z,9.47
2019-02-26T06:43:52.158Z,9.33
2019-02-26T06:46:20.103Z,7.07
2019-02-26T06:48:48.526Z,9.43
2019-02-26T06:51:18.982Z,8.13
2019-02-26T06:53:49.231Z,8.27
2019-02-26T06:56:17.930Z,6.70
2019-02-26T06:58:47.480Z,7.07
2019-02-26T07:01:17.002Z,9.17
2019-02-26T07:03:46.548Z,6.17
2019-02-26T07:06:18.499Z,8.23
2019-02-26T07:08:46.685Z,9.00
2019-02-26T07:11:15.208Z,7.00
2019-02-26T07:13:44.750Z,5.97
2019-02-26T07:16:13.854Z,6.13
2019-02-26T07:18:42.268Z,7.50
2019-02-26T07:21:10.670Z,6.47
2019-02-26T07:23:39.999Z,7.30
2019-02-26T07:26:08.791Z,10.03
2019-02-26T07:28:39.179Z,9.50
2019-02-26T07:31:09.751Z,15.77
2019-02-26T07:33:39.561Z,9.13
2019-02-26T07:36:08.135Z,8.07
2019-02-26T07:38:48.516Z,10.63
2019-02-26T07:41:15.130Z,14.73
2019-02-26T07:43:44.624Z,9.17
2019-02-26T07:46:14.610Z,10.17
2019-02-26T07:48:48.494Z,10.63
2019-02-26T07:51:14.255Z,9.30
2019-02-26T07:53:47.982Z,6.30
2019-02-26T07:56:12.808Z,6.67
2019-02-26T07:58:42.961Z,10.20
2019-02-26T08:01:11.370Z,5.67
2019-02-26T08:03:41.542Z,5.83
2019-02-26T08:06:11.756Z,8.20
2019-02-26T08:08:41.985Z,8.43
2019-02-26T08:11:10.184Z,7.37
2019-02-26T08:13:38.616Z,7.70
2019-02-26T08:16:07.005Z,5.87
2019-02-26T08:18:35.416Z,7.70
2019-02-26T08:21:05.049Z,11.17
2019-02-26T08:23:33.677Z,13.50
2019-02-26T08:26:02.308Z,10.03
2019-02-26T08:28:30.914Z,8.73
2019-02-26T08:30:59.658Z,10.47
2019-02-26T08:33:29.044Z,7.40
2019-02-26T08:35:57.451Z,8.17
2019-02-26T08:38:29.390Z,9.17
2019-02-26T08:40:56.260Z,9.83
2019-02-26T08:43:24.658Z,9.47
2019-02-26T08:45:53.061Z,7.63
2019-02-26T08:48:22.329Z,7.23
2019-02-26T08:50:51.615Z,7.03
2019-02-26T08:53:21.794Z,8.73
2019-02-26T08:55:51.528Z,10.77
2019-02-26T08:58:20.622Z,8.83
2019-02-26T09:00:49.054Z,10.97
2019-02-26T09:03:17.966Z,7.33
2019-02-26T09:05:49.286Z,7.63
2019-02-26T09:08:18.167Z,9.93
2019-02-26T09:10:48.583Z,7.07
2019-02-26T09:13:18.736Z,11.37
2019-02-26T09:15:47.243Z,7.10
2019-02-26T09:18:15.652Z,7.63
2019-02-26T09:20:44.074Z,7.33
2019-02-26T09:23:16.310Z,10.47
2019-02-26T09:25:42.629Z,10.80
2019-02-26T09:28:11.029Z,8.30
2019-02-26T09:30:40.855Z,7.10
2019-02-26T09:33:11.125Z,9.03
2019-02-26T09:35:39.726Z,6.97
2019-02-26T09:38:08.129Z,7.87
2019-02-26T09:40:37.161Z,9.63
2019-02-26T09:43:06.268Z,7.43
2019-02-26T09:45:35.076Z,8.40
2019-02-26T09:48:03.486Z,6.93
2019-02-26T09:50:31.910Z,10.93
2019-02-26T09:53:00.320Z,8.33
2019-02-26T09:55:30.946Z,8.80
2019-02-26T09:57:59.355Z,9.87
2019-02-26T10:00:29.546Z,6.30
2019-02-26T10:02:58.434Z,8.43
2019-02-26T10:05:26.912Z,6.90
2019-02-26T10:07:58.007Z,8.43
2019-02-26T10:10:28.139Z,11.07
2019-02-26T10:12:57.378Z,6.83
2019-02-26T10:15:25.735Z,11.87
2019-02-26T10:17:56.217Z,7.47
2019-02-26T10:20:31.403Z,7.87
2019-02-26T10:23:00.651Z,6.30
2019-02-26T10:25:31.779Z,8.00
2019-02-26T10:28:03.151Z,6.90
2019-02-26T10:30:31.390Z,9.23
2019-02-26T10:33:02.753Z,12.80
2019-02-26T10:35:33.281Z,7.70
2019-02-26T10:38:02.949Z,8.93
2019-02-26T10:40:35.247Z,9.97
2019-02-26T10:43:00.595Z,8.33
2019-02-26T10:45:36.066Z,8.37
2019-02-26T10:48:01.965Z,8.23
2019-02-26T10:50:31.975Z,7.77
2019-02-26T10:53:07.353Z,7.90
2019-02-26T10:55:38.346Z,6.67
2019-02-26T10:58:06.784Z,6.73
2019-02-26T11:00:35.284Z,10.90
2019-02-26T11:03:09.175Z,8.83
2019-02-26T11:05:39.868Z,8.23
2019-02-26T11:08:09.525Z,7.47
2019-02-26T11:10:41.422Z,13.07
2019-02-26T11:13:08.443Z,7.30
2019-02-26T11:15:36.862Z,7.93
2019-02-26T11:18:05.932Z,7.20
2019-02-26T11:20:34.577Z,6.73
2019-02-26T11:23:04.158Z,7.57
2019-02-26T11:25:33.145Z,11.00
2019-02-26T11:28:02.436Z,6.10
2019-02-26T11:30:32.290Z,7.60
2019-02-26T11:33:04.773Z,6.20
2019-02-26T11:35:31.413Z,8.37
2019-02-26T11:38:00.225Z,6.43
2019-02-26T11:40:30.691Z,4.73
2019-02-26T11:43:00.342Z,5.67
2019-02-26T11:45:29.381Z,11.57
2019-02-26T11:48:00.416Z,5.90
2019-02-26T11:50:28.487Z,5.20
2019-02-26T11:52:57.791Z,3.60
2019-02-26T11:55:29.301Z,4.30
2019-02-26T11:57:56.885Z,4.80
2019-02-26T12:00:49.635Z,3.83
2019-02-26T12:03:16.415Z,4.20
2019-02-26T12:05:44.843Z,5.53
2019-02-26T12:08:14.870Z,6.93
2019-02-26T12:10:43.369Z,5.93
2019-02-26T12:13:11.797Z,7.33
2019-02-26T12:15:42.706Z,8.07
2019-02-26T12:18:13.083Z,6.03
2019-02-26T12:20:42.983Z,10.07
2019-02-26T12:23:13.329Z,4.97
2019-02-26T12:25:41.096Z,4.83
2019-02-26T12:28:11.570Z,5.00
2019-02-26T12:30:41.501Z,4.13
2019-02-26T12:33:14.790Z,3.00
2019-02-26T12:35:43.852Z,4.23
2019-02-26T12:38:20.642Z,5.93
2019-02-26T12:40:44.630Z,2.67
2019-02-26T12:43:17.745Z,2.43
2019-02-26T12:45:43.018Z,2.00
2019-02-26T12:48:14.265Z,3.23
2019-02-26T12:50:41.566Z,3.43
2019-02-26T12:53:12.766Z,2.30
2019-02-26T12:55:42.334Z,2.30
2019-02-26T12:58:18.671Z,2.23
2019-02-26T13:00:46.656Z,2.13
2019-02-26T13:03:15.783Z,2.10
2019-02-26T13:05:45.584Z,4.17
2019-02-26T13:08:17.164Z,2.83
2019-02-26T13:10:49.592Z,2.57
2019-02-26T13:13:15.904Z,2.40
2019-02-26T13:15:44.299Z,4.00
2019-02-26T13:18:12.718Z,3.30
2019-02-26T13:20:41.199Z,2.80
2019-02-26T13:23:20.030Z,2.00
2019-02-26T13:25:40.000Z,3.03
2019-02-26T13:28:08.699Z,2.27
2019-02-26T13:30:37.186Z,3.53
2019-02-26T13:33:10.677Z,3.53
2019-02-26T13:35:35.998Z,3.33
2019-02-26T13:38:05.347Z,3.47
2019-02-26T13:40:38.493Z,3.23
2019-02-26T13:45:34.615Z,2.50
2019-02-26T13:48:03.390Z,3.30
2019-02-26T13:50:35.673Z,3.33
2019-02-26T13:53:04.662Z,6.97
2019-02-26T13:55:33.061Z,3.40
2019-02-26T13:58:04.750Z,3.20
2019-02-26T14:00:31.721Z,3.43
2019-02-26T14:03:00.117Z,4.27
2019-02-26T14:05:37.700Z,3.50
2019-02-26T14:07:59.233Z,2.70
2019-02-26T14:10:27.646Z,3.00
2019-02-26T14:12:56.288Z,3.10
2019-02-26T14:15:26.968Z,4.83
2019-02-26T14:17:55.383Z,2.57
2019-02-26T14:20:23.851Z,6.10
2019-02-26T14:22:52.261Z,3.03
2019-02-26T14:25:21.613Z,3.03
2019-02-26T14:27:50.046Z,1.80
2019-02-26T14:30:21.991Z,2.30
2019-02-26T14:32:50.860Z,1.83
2019-02-26T14:35:19.553Z,3.13
2019-02-26T14:37:48.386Z,7.77
2019-02-26T14:40:21.257Z,4.03
2019-02-26T14:42:51.401Z,2.27
2019-02-26T14:45:22.550Z,4.53
2019-02-26T14:47:51.137Z,3.60
2019-02-26T14:50:26.258Z,6.10
2019-02-26T14:52:54.786Z,5.33
2019-02-26T14:55:23.366Z,1.60
2019-02-26T14:57:51.777Z,3.33
2019-02-26T15:00:28.370Z,1.90
2019-02-26T15:02:57.202Z,1.50
2019-02-26T15:05:25.679Z,1.70
2019-02-26T15:07:54.103Z,1.60
2019-02-26T15:10:22.496Z,2.03
2019-02-26T15:12:50.989Z,1.67
2019-02-26T15:15:20.628Z,1.60
2019-02-26T15:17:49.034Z,2.20
2019-02-26T15:20:22.094Z,1.13
2019-02-26T15:22:50.514Z,2.33
2019-02-26T15:25:22.954Z,1.33
2019-02-26T15:27:51.420Z,1.30
2019-02-26T15:30:20.975Z,1.30
2019-02-26T15:32:49.627Z,1.70
2019-02-26T15:35:18.663Z,3.70
2019-02-26T15:37:47.613Z,0.90
2019-02-26T15:40:20.720Z,1.07
2019-02-26T15:42:52.298Z,2.10
2019-02-26T15:45:29.025Z,1.17
2019-02-26T15:47:57.969Z,1.30
2019-02-26T15:50:26.379Z,1.00
2019-02-26T15:52:54.788Z,2.17
2019-02-26T15:55:28.937Z,1.73
2019-02-26T15:58:03.064Z,5.87
2019-02-26T16:00:28.574Z,2.83
2019-02-26T16:02:59.310Z,3.33
2019-02-26T16:05:30.563Z,6.40
2019-02-26T16:07:59.003Z,4.23
2019-02-26T16:10:27.421Z,6.30
2019-02-26T16:12:57.467Z,5.67
2019-02-26T16:15:25.878Z,5.10
2019-02-26T16:17:58.150Z,10.10
2019-02-26T16:20:24.442Z,8.70
2019-02-26T16:22:52.844Z,8.70
2019-02-26T16:25:21.283Z,9.50
2019-02-26T16:27:51.713Z,7.80
2019-02-26T16:30:24.543Z,8.90
2019-02-26T16:32:53.574Z,7.23
2019-02-26T16:35:24.825Z,7.40
2019-02-26T16:37:52.482Z,6.03
2019-02-26T16:40:21.055Z,5.83
2019-02-26T16:42:49.453Z,5.20
2019-02-26T16:45:21.219Z,4.20
2019-02-26T16:47:49.699Z,6.87
2019-02-26T16:50:26.858Z,7.00
2019-02-26T16:52:55.270Z,9.60
2019-02-26T16:55:23.763Z,4.17
2019-02-26T16:57:52.162Z,8.40
2019-02-26T17:00:27.784Z,5.10
2019-02-26T17:02:59.698Z,4.33
2019-02-26T17:05:26.323Z,5.17
2019-02-26T17:07:55.011Z,22.33
2019-02-26T17:10:29.281Z,9.70
2019-02-26T17:13:01.845Z,4.17
2019-02-26T17:15:29.823Z,5.07
2019-02-26T17:17:58.220Z,8.90
2019-02-26T17:20:26.630Z,6.07
2019-02-26T17:22:55.027Z,4.00
2019-02-26T17:25:27.803Z,6.37
2019-02-26T17:27:54.953Z,7.13
2019-02-26T17:30:23.974Z,17.80
2019-02-26T17:32:55.469Z,27.77
2019-02-26T17:35:23.979Z,18.63
2019-02-26T17:37:52.396Z,18.63
2019-02-26T17:40:22.168Z,17.63
2019-02-26T17:42:51.260Z,12.77
2019-02-26T17:45:25.986Z,10.00
2019-02-26T17:47:56.454Z,10.83
2019-02-26T17:50:36.448Z,12.27
2019-02-26T17:53:04.946Z,11.67
2019-02-26T17:55:33.386Z,13.57
2019-02-26T17:58:01.799Z,14.40
2019-02-26T18:00:31.858Z,11.00
2019-02-26T18:03:00.280Z,27.17
2019-02-26T18:05:28.816Z,12.57
2019-02-26T18:07:57.242Z,16.37
2019-02-26T18:10:26.901Z,28.17
2019-02-26T18:12:55.387Z,15.63
2019-02-26T18:15:23.961Z,9.27
2019-02-26T18:17:52.690Z,15.03
2019-02-26T18:20:22.349Z,12.10
2019-02-26T18:22:50.753Z,10.63
2019-02-26T18:25:20.958Z,212.37
2019-02-26T18:27:49.370Z,201.40
2019-02-26T18:30:20.417Z,49.60
2019-02-26T18:32:50.539Z,22.10
2019-02-26T18:35:19.330Z,15.90
2019-02-26T18:37:47.871Z,16.47
2019-02-26T18:40:17.638Z,91.10
2019-02-26T18:42:46.692Z,61.73
2019-02-26T18:45:27.874Z,26.57
2019-02-26T18:47:56.682Z,21.33
2019-02-26T18:50:25.888Z,14.77
2019-02-26T18:52:55.664Z,11.17
2019-02-26T18:55:27.954Z,8.37
2019-02-26T18:57:55.374Z,7.33
2019-02-26T19:00:31.403Z,8.17
2019-02-26T19:02:59.888Z,7.90
2019-02-26T19:05:28.332Z,8.57
2019-02-26T19:07:56.926Z,12.87
2019-02-26T19:10:25.591Z,26.13
2019-02-26T19:12:54.118Z,17.10
2019-02-26T19:15:31.506Z,15.63
2019-02-26T19:18:02.697Z,14.30
2019-02-26T19:20:35.468Z,11.97
2019-02-26T19:23:03.992Z,11.90
2019-02-26T19:25:32.447Z,8.87
2019-02-26T19:28:00.885Z,10.27
2019-02-26T19:30:29.592Z,8.97
2019-02-26T19:32:58.061Z,10.13
2019-02-26T19:35:26.487Z,9.50
2019-02-26T19:38:03.235Z,12.57
2019-02-26T19:40:49.646Z,15.03
2019-02-26T19:43:18.088Z,10.57
2019-02-26T19:45:46.587Z,8.33
2019-02-26T19:48:15.013Z,12.33
2019-02-26T19:50:48.706Z,12.83
2019-02-26T19:53:16.921Z,15.27
2019-02-26T19:55:49.729Z,11.40
2019-02-26T19:58:17.735Z,9.90
2019-02-26T20:00:46.624Z,11.40
2019-02-26T20:03:15.120Z,11.80
2019-02-26T20:05:47.159Z,7.37
2019-02-26T20:08:21.755Z,12.77
2019-02-26T20:10:53.359Z,10.23
2019-02-26T20:13:20.397Z,13.27
2019-02-26T20:15:48.835Z,14.17
2019-02-26T20:18:21.048Z,14.53
2019-02-26T20:20:47.953Z,15.20
2019-02-26T20:23:16.384Z,7.60
2019-02-26T20:25:46.777Z,8.57
2019-02-26T20:28:14.984Z,11.43
2019-02-26T20:30:43.472Z,12.77
2019-02-26T20:33:12.410Z,6.70
2019-02-26T20:35:45.052Z,12.50
2019-02-26T20:38:11.046Z,8.70
2019-02-26T20:40:39.770Z,6.80
2019-02-26T20:43:08.296Z,8.47
2019-02-26T20:45:37.840Z,9.87
2019-02-26T20:48:06.286Z,8.07
2019-02-26T20:50:34.822Z,8.50
2019-02-26T20:53:05.679Z,10.03
2019-02-26T20:55:33.842Z,10.87
2019-02-26T20:58:02.579Z,9.10
2019-02-26T21:00:31.055Z,9.20
2019-02-26T21:02:59.509Z,9.70
2019-02-26T21:05:27.958Z,10.07
2019-02-26T21:07:58.777Z,8.23
2019-02-26T21:10:26.556Z,10.40
2019-02-26T21:12:55.006Z,9.37
2019-02-26T21:15:40.022Z,12.07
2019-02-26T21:18:08.486Z,11.87
2019-02-26T21:20:38.814Z,15.37
2019-02-26T21:23:07.118Z,11.17
2019-02-26T21:25:35.566Z,12.10
2019-02-26T21:28:04.030Z,15.10
2019-02-26T21:30:32.466Z,14.10
2019-02-26T21:33:00.903Z,10.00
2019-02-26T21:35:29.336Z,13.60
2019-02-26T21:37:57.775Z,11.90
2019-02-26T21:40:26.229Z,8.93
2019-02-26T21:42:54.666Z,9.20
2019-02-26T21:45:23.127Z,12.33
2019-02-26T21:47:51.877Z,10.00
2019-02-26T21:50:22.853Z,10.40
2019-02-26T21:53:05.803Z,12.43
2019-02-26T21:55:21.198Z,11.50
2019-02-26T21:57:49.645Z,15.40
2019-02-26T22:00:23.800Z,7.83
2019-02-26T22:02:53.019Z,9.40
2019-02-26T22:05:21.622Z,8.27
2019-02-26T22:07:52.374Z,11.23
2019-02-26T22:10:21.442Z,10.13
2019-02-26T22:12:49.887Z,11.13
2019-02-26T22:15:18.374Z,12.07
2019-02-26T22:17:46.813Z,10.10
2019-02-26T22:20:26.921Z,11.23
2019-02-26T22:22:47.728Z,13.47
2019-02-26T22:25:17.472Z,12.70
2019-02-26T22:27:46.484Z,15.30
2019-02-26T22:30:21.384Z,12.00
2019-02-26T22:32:54.861Z,11.37
2019-02-26T22:35:25.574Z,13.13
2019-02-26T22:37:53.467Z,11.87
2019-02-26T22:40:22.827Z,10.93
2019-02-26T22:42:51.530Z,12.93
2019-02-26T22:45:22.142Z,11.03
2019-02-26T22:47:50.167Z,14.17
2019-02-26T22:50:18.642Z,11.17
2019-02-26T22:52:47.470Z,11.37
2019-02-26T22:55:17.608Z,13.10
2019-02-26T22:57:46.365Z,12.53
2019-02-26T23:00:51.190Z,10.90
2019-02-26T23:03:19.750Z,14.93
2019-02-26T23:05:48.273Z,12.73
2019-02-26T23:08:17.267Z,10.87
2019-02-26T23:10:46.328Z,12.63
2019-02-26T23:13:16.713Z,14.40
2019-02-26T23:15:46.067Z,10.57
2019-02-26T23:18:16.180Z,11.67
2019-02-26T23:20:44.773Z,11.10
2019-02-26T23:23:13.266Z,8.53
2019-02-26T23:25:42.669Z,9.33
2019-02-26T23:28:11.347Z,6.63
2019-02-26T23:30:41.141Z,9.63
2019-02-26T23:33:09.644Z,7.17
2019-02-26T23:35:38.659Z,12.33
2019-02-26T23:38:08.527Z,8.17
2019-02-26T23:40:37.750Z,13.10
2019-02-26T23:43:06.300Z,12.97
2019-02-26T23:45:34.741Z,9.17
2019-02-26T23:48:07.674Z,9.77
2019-02-26T23:50:33.376Z,9.13
2019-02-26T23:53:01.821Z,11.23
2019-02-26T23:55:30.268Z,9.07
2019-02-26T23:57:58.723Z,10.13
